sensor_id;sensor_type;location;lat;lon;timestamp;pressure;altitude;pressure_sealevel;temperature;humidity
50652;BME280;66928;52.086;5.240;2023-05-08T05:49:40;101995.0;;;15.32;88.86
50652;BME280;66928;52.086;5.240;2023-05-08T05:51:16;101998.0;;;15.32;88.71
50652;BME280;66928;52.086;5.240;2023-05-08T05:52:52;101996.0;;;15.35;88.48
50652;BME280;66928;52.086;5.240;2023-05-08T05:56:05;101998.0;;;15.38;88.36
50652;BME280;66928;52.086;5.240;2023-05-08T05:57:41;101995.0;;;15.44;88.07
50652;BME280;66928;52.086;5.240;2023-05-08T05:59:17;101996.0;;;15.25;89.06
50652;BME280;66928;52.086;5.240;2023-05-08T06:02:30;101998.0;;;15.07;90.4
50652;BME280;66928;52.086;5.240;2023-05-08T06:04:06;101998.0;;;14.98;91.32
50652;BME280;66928;52.086;5.240;2023-05-08T06:05:42;102002.0;;;15.21;90.6
50652;BME280;66928;52.086;5.240;2023-05-08T06:07:18;102003.0;;;15.3;90.38
50652;BME280;66928;52.086;5.240;2023-05-08T06:10:31;102005.0;;;15.32;90.21
50652;BME280;66928;52.086;5.240;2023-05-08T06:12:06;102002.0;;;15.42;89.94
50652;BME280;66928;52.086;5.240;2023-05-08T06:13:43;102006.0;;;15.46;89.88
50652;BME280;66928;52.086;5.240;2023-05-08T06:16:56;102005.0;;;15.5;89.84
50652;BME280;66928;52.086;5.240;2023-05-08T06:18:33;102010.0;;;15.38;90.63
50652;BME280;66928;52.086;5.240;2023-05-08T06:20:10;102009.0;;;15.6;90.05
50652;BME280;66928;52.086;5.240;2023-05-08T06:23:22;102008.0;;;15.69;89.62
50652;BME280;66928;52.086;5.240;2023-05-08T06:24:58;102006.0;;;15.67;90.39
50652;BME280;66928;52.086;5.240;2023-05-08T06:26:34;102008.0;;;15.7;90.4
50652;BME280;66928;52.086;5.240;2023-05-08T06:28:10;102007.0;;;15.7;90.63
50652;BME280;66928;52.086;5.240;2023-05-08T06:31:22;102009.0;;;15.85;90.53
50652;BME280;66928;52.086;5.240;2023-05-08T06:32:58;102011.0;;;15.74;91.28
50652;BME280;66928;52.086;5.240;2023-05-08T06:34:34;102014.0;;;15.76;91.68
50652;BME280;66928;52.086;5.240;2023-05-08T06:37:48;102013.0;;;15.76;92.48
50652;BME280;66928;52.086;5.240;2023-05-08T06:39:24;102013.0;;;15.83;92.38
50652;BME280;66928;52.086;5.240;2023-05-08T06:41:00;102018.0;;;15.96;91.77
50652;BME280;66928;52.086;5.240;2023-05-08T06:44:12;102016.0;;;16.09;91.82
50652;BME280;66928;52.086;5.240;2023-05-08T06:45:48;102019.0;;;16.25;91.1
50652;BME280;66928;52.086;5.240;2023-05-08T06:47:25;102015.0;;;16.18;91.36
50652;BME280;66928;52.086;5.240;2023-05-08T06:50:37;102013.0;;;16.28;91.0
50652;BME280;66928;52.086;5.240;2023-05-08T06:52:14;102017.0;;;16.4;90.7
50652;BME280;66928;52.086;5.240;2023-05-08T06:53:50;102018.0;;;16.43;90.29
50652;BME280;66928;52.086;5.240;2023-05-08T06:55:26;102015.0;;;16.41;90.89
50652;BME280;66928;52.086;5.240;2023-05-08T06:58:38;102017.0;;;16.43;91.01
50652;BME280;66928;52.086;5.240;2023-05-08T07:00:15;102013.0;;;16.5;90.95
50652;BME280;66928;52.086;5.240;2023-05-08T07:01:51;102013.0;;;16.56;90.85
50652;BME280;66928;52.086;5.240;2023-05-08T07:05:04;102013.0;;;16.63;90.67
50652;BME280;66928;52.086;5.240;2023-05-08T07:06:40;102013.0;;;16.72;90.27
50652;BME280;66928;52.086;5.240;2023-05-08T07:08:17;102017.0;;;16.7;89.96
50652;BME280;66928;52.086;5.240;2023-05-08T07:11:29;102014.0;;;16.84;89.84
50652;BME280;66928;52.086;5.240;2023-05-08T07:13:05;102012.0;;;16.93;89.78
50652;BME280;66928;52.086;5.240;2023-05-08T07:14:41;102010.0;;;17.02;89.18
50652;BME280;66928;52.086;5.240;2023-05-08T07:16:17;102008.0;;;17.09;89.17
50652;BME280;66928;52.086;5.240;2023-05-08T07:19:29;102008.0;;;17.09;89.01
50652;BME280;66928;52.086;5.240;2023-05-08T07:21:05;102010.0;;;17.13;88.56
50652;BME280;66928;52.086;5.240;2023-05-08T07:22:42;102012.0;;;17.18;88.67
50652;BME280;66928;52.086;5.240;2023-05-08T07:25:54;102007.0;;;17.28;87.92
50652;BME280;66928;52.086;5.240;2023-05-08T07:27:30;102006.0;;;17.27;87.76
50652;BME280;66928;52.086;5.240;2023-05-08T07:29:07;102007.0;;;17.34;87.45
50652;BME280;66928;52.086;5.240;2023-05-08T07:32:19;102007.0;;;17.41;87.43
50652;BME280;66928;52.086;5.240;2023-05-08T07:33:55;102009.0;;;17.54;86.89
50652;BME280;66928;52.086;5.240;2023-05-08T07:35:32;102008.0;;;17.43;87.47
50652;BME280;66928;52.086;5.240;2023-05-08T07:38:44;102009.0;;;17.38;87.49
50652;BME280;66928;52.086;5.240;2023-05-08T07:40:20;102007.0;;;17.34;87.74
50652;BME280;66928;52.086;5.240;2023-05-08T07:41:56;102008.0;;;17.45;87.11
50652;BME280;66928;52.086;5.240;2023-05-08T07:43:32;102009.0;;;17.45;87.23
50652;BME280;66928;52.086;5.240;2023-05-08T07:46:48;102011.0;;;17.37;87.05
50652;BME280;66928;52.086;5.240;2023-05-08T07:48:24;102007.0;;;17.43;87.15
50652;BME280;66928;52.086;5.240;2023-05-08T07:50:00;102005.0;;;17.52;87.2
50652;BME280;66928;52.086;5.240;2023-05-08T07:53:12;102006.0;;;17.41;87.54
50652;BME280;66928;52.086;5.240;2023-05-08T07:54:48;102009.0;;;17.48;88.04
50652;BME280;66928;52.086;5.240;2023-05-08T07:56:25;102010.0;;;17.59;87.59
50652;BME280;66928;52.086;5.240;2023-05-08T07:59:37;102015.0;;;17.56;87.49
50652;BME280;66928;52.086;5.240;2023-05-08T08:01:13;102007.0;;;17.63;87.41
50652;BME280;66928;52.086;5.240;2023-05-08T08:02:49;102008.0;;;17.59;87.63
50652;BME280;66928;52.086;5.240;2023-05-08T08:04:25;102011.0;;;17.63;87.85
50652;BME280;66928;52.086;5.240;2023-05-08T08:07:37;102010.0;;;17.59;87.54
50652;BME280;66928;52.086;5.240;2023-05-08T08:09:13;102008.0;;;17.5;88.12
50652;BME280;66928;52.086;5.240;2023-05-08T08:10:50;102009.0;;;17.59;88.6
50652;BME280;66928;52.086;5.240;2023-05-08T08:14:03;102009.0;;;17.7;88.01
50652;BME280;66928;52.086;5.240;2023-05-08T08:15:39;102008.0;;;17.86;87.06
50652;BME280;66928;52.086;5.240;2023-05-08T08:17:16;102006.0;;;17.95;86.42
50652;BME280;66928;52.086;5.240;2023-05-08T08:20:29;102009.0;;;17.97;86.36
50652;BME280;66928;52.086;5.240;2023-05-08T08:22:05;102005.0;;;17.98;85.34
50652;BME280;66928;52.086;5.240;2023-05-08T08:23:41;102000.0;;;18.09;84.45
50652;BME280;66928;52.086;5.240;2023-05-08T08:25:17;101999.0;;;18.16;84.53
50652;BME280;66928;52.086;5.240;2023-05-08T08:28:29;101999.0;;;18.12;84.81
50652;BME280;66928;52.086;5.240;2023-05-08T08:30:07;102001.0;;;18.25;83.8
50652;BME280;66928;52.086;5.240;2023-05-08T08:31:43;101997.0;;;18.25;83.48
50652;BME280;66928;52.086;5.240;2023-05-08T08:34:55;101994.0;;;18.27;83.23
50652;BME280;66928;52.086;5.240;2023-05-08T08:36:31;101996.0;;;18.31;83.41
50652;BME280;66928;52.086;5.240;2023-05-08T08:38:07;101996.0;;;18.34;83.64
50652;BME280;66928;52.086;5.240;2023-05-08T08:41:19;101992.0;;;18.37;83.68
50652;BME280;66928;52.086;5.240;2023-05-08T08:42:56;101999.0;;;18.5;83.19
50652;BME280;66928;52.086;5.240;2023-05-08T08:44:32;101999.0;;;18.61;82.81
50652;BME280;66928;52.086;5.240;2023-05-08T08:47:50;102005.0;;;18.63;82.19
50652;BME280;66928;52.086;5.240;2023-05-08T08:49:30;102005.0;;;18.68;82.62
50652;BME280;66928;52.086;5.240;2023-05-08T08:51:08;102007.0;;;18.77;82.5
50652;BME280;66928;52.086;5.240;2023-05-08T08:52:54;102003.0;;;18.77;82.56
50652;BME280;66928;52.086;5.240;2023-05-08T08:54:35;102005.0;;;18.86;82.19
50652;BME280;66928;52.086;5.240;2023-05-08T08:57:59;102005.0;;;18.91;81.02
50652;BME280;66928;52.086;5.240;2023-05-08T08:59:37;102007.0;;;18.93;80.91
50652;BME280;66928;52.086;5.240;2023-05-08T09:01:17;102005.0;;;19.03;80.7
50652;BME280;66928;52.086;5.240;2023-05-08T09:02:55;102005.0;;;19.02;79.92
50652;BME280;66928;52.086;5.240;2023-05-08T09:06:07;102008.0;;;19.16;79.99
50652;BME280;66928;52.086;5.240;2023-05-08T09:07:43;102006.0;;;19.18;78.77
50652;BME280;66928;52.086;5.240;2023-05-08T09:09:20;102007.0;;;19.23;78.42
50652;BME280;66928;52.086;5.240;2023-05-08T09:12:32;102005.0;;;19.27;78.05
50652;BME280;66928;52.086;5.240;2023-05-08T09:14:08;102001.0;;;19.3;77.91
50652;BME280;66928;52.086;5.240;2023-05-08T09:15:44;102000.0;;;19.41;77.58
50652;BME280;66928;52.086;5.240;2023-05-08T09:18:56;102002.0;;;19.39;78.22
50652;BME280;66928;52.086;5.240;2023-05-08T09:20:33;101999.0;;;19.59;78.58
50652;BME280;66928;52.086;5.240;2023-05-08T09:22:10;101997.0;;;19.56;77.77
50652;BME280;66928;52.086;5.240;2023-05-08T09:25:48;102002.0;;;19.66;78.0
50652;BME280;66928;52.086;5.240;2023-05-08T09:27:27;102008.0;;;19.64;77.19
50652;BME280;66928;52.086;5.240;2023-05-08T09:29:10;102011.0;;;19.62;77.53
50652;BME280;66928;52.086;5.240;2023-05-08T09:30:49;102009.0;;;19.57;77.38
50652;BME280;66928;52.086;5.240;2023-05-08T09:32:26;102006.0;;;19.48;77.75
50652;BME280;66928;52.086;5.240;2023-05-08T09:35:39;102007.0;;;19.59;77.8
50652;BME280;66928;52.086;5.240;2023-05-08T09:37:16;102002.0;;;19.55;77.53
50652;BME280;66928;52.086;5.240;2023-05-08T09:38:52;102002.0;;;19.56;78.08
50652;BME280;66928;52.086;5.240;2023-05-08T09:42:04;102005.0;;;19.52;77.78
50652;BME280;66928;52.086;5.240;2023-05-08T09:43:41;102005.0;;;19.47;77.94
50652;BME280;66928;52.086;5.240;2023-05-08T09:45:26;102000.0;;;19.52;78.34
50652;BME280;66928;52.086;5.240;2023-05-08T09:47:12;102000.0;;;19.66;77.72
50652;BME280;66928;52.086;5.240;2023-05-08T09:50:27;102005.0;;;19.66;77.49
50652;BME280;66928;52.086;5.240;2023-05-08T09:52:03;102005.0;;;19.64;77.69
50652;BME280;66928;52.086;5.240;2023-05-08T09:53:40;102005.0;;;19.7;77.12
50652;BME280;66928;52.086;5.240;2023-05-08T09:55:17;102003.0;;;19.78;76.69
50652;BME280;66928;52.086;5.240;2023-05-08T09:58:36;102003.0;;;19.89;76.23
50652;BME280;66928;52.086;5.240;2023-05-08T10:00:13;102005.0;;;19.8;76.58
50652;BME280;66928;52.086;5.240;2023-05-08T10:01:50;102012.0;;;19.75;76.22
50652;BME280;66928;52.086;5.240;2023-05-08T10:05:23;102009.0;;;19.86;75.97
50652;BME280;66928;52.086;5.240;2023-05-08T10:07:01;102009.0;;;19.84;75.3
50652;BME280;66928;52.086;5.240;2023-05-08T10:08:37;102010.0;;;19.73;75.31
50652;BME280;66928;52.086;5.240;2023-05-08T10:10:14;102014.0;;;19.66;75.69
50652;BME280;66928;52.086;5.240;2023-05-08T10:11:57;102009.0;;;19.7;76.12
50652;BME280;66928;52.086;5.240;2023-05-08T10:15:09;102012.0;;;19.59;75.55
50652;BME280;66928;52.086;5.240;2023-05-08T10:16:46;102010.0;;;19.77;75.33
50652;BME280;66928;52.086;5.240;2023-05-08T10:18:25;102014.0;;;19.71;75.22
50652;BME280;66928;52.086;5.240;2023-05-08T10:21:45;102011.0;;;19.77;74.98
50652;BME280;66928;52.086;5.240;2023-05-08T10:23:23;102015.0;;;19.86;74.55
50652;BME280;66928;52.086;5.240;2023-05-08T10:25:01;102014.0;;;19.95;74.5
50652;BME280;66928;52.086;5.240;2023-05-08T10:26:41;102013.0;;;19.93;74.22
50652;BME280;66928;52.086;5.240;2023-05-08T10:30:05;102016.0;;;20.02;74.8
50652;BME280;66928;52.086;5.240;2023-05-08T10:31:45;102012.0;;;20.0;75.2
50652;BME280;66928;52.086;5.240;2023-05-08T10:33:28;102009.0;;;20.2;74.36
50652;BME280;66928;52.086;5.240;2023-05-08T10:35:08;102012.0;;;20.05;74.24
50652;BME280;66928;52.086;5.240;2023-05-08T10:38:23;102009.0;;;20.18;74.05
50652;BME280;66928;52.086;5.240;2023-05-08T10:40:02;102012.0;;;20.14;74.36
50652;BME280;66928;52.086;5.240;2023-05-08T10:41:39;102012.0;;;20.12;74.03
50652;BME280;66928;52.086;5.240;2023-05-08T10:44:53;102016.0;;;20.22;73.25
50652;BME280;66928;52.086;5.240;2023-05-08T10:46:36;102016.0;;;20.29;72.78
50652;BME280;66928;52.086;5.240;2023-05-08T10:48:22;102015.0;;;20.3;72.8
50652;BME280;66928;52.086;5.240;2023-05-08T10:50:11;102009.0;;;20.28;72.58
50652;BME280;66928;52.086;5.240;2023-05-08T10:52:00;102009.0;;;20.36;72.44
50652;BME280;66928;52.086;5.240;2023-05-08T10:55:28;102011.0;;;20.41;72.66
50652;BME280;66928;52.086;5.240;2023-05-08T10:57:08;102002.0;;;20.49;71.55
50652;BME280;66928;52.086;5.240;2023-05-08T10:58:54;101999.0;;;20.49;71.63
50652;BME280;66928;52.086;5.240;2023-05-08T11:00:32;102005.0;;;20.34;72.31
50652;BME280;66928;52.086;5.240;2023-05-08T11:02:47;101998.0;;;20.32;72.52
50652;BME280;66928;52.086;5.240;2023-05-08T11:04:23;102000.0;;;20.3;72.97
50652;BME280;66928;52.086;5.240;2023-05-08T11:07:52;101999.0;;;20.37;72.72
50652;BME280;66928;52.086;5.240;2023-05-08T11:09:30;101998.0;;;20.38;72.24
50652;BME280;66928;52.086;5.240;2023-05-08T11:11:27;101998.0;;;20.41;72.22
50652;BME280;66928;52.086;5.240;2023-05-08T11:13:05;101993.0;;;20.53;72.11
50652;BME280;66928;52.086;5.240;2023-05-08T11:17:32;101994.0;;;20.56;72.12
50652;BME280;66928;52.086;5.240;2023-05-08T11:19:16;101989.0;;;20.51;72.86
50652;BME280;66928;52.086;5.240;2023-05-08T11:22:32;101984.0;;;20.47;73.06
50652;BME280;66928;52.086;5.240;2023-05-08T11:24:09;101978.0;;;20.71;71.55
50652;BME280;66928;52.086;5.240;2023-05-08T11:25:45;101980.0;;;20.73;71.72
50652;BME280;66928;52.086;5.240;2023-05-08T11:27:39;101977.0;;;20.89;71.16
50652;BME280;66928;52.086;5.240;2023-05-08T11:29:31;101974.0;;;20.99;71.33
50652;BME280;66928;52.086;5.240;2023-05-08T11:33:16;101977.0;;;20.99;69.7
50652;BME280;66928;52.086;5.240;2023-05-08T11:34:52;101973.0;;;21.06;69.47
50652;BME280;66928;52.086;5.240;2023-05-08T11:36:29;101972.0;;;21.08;69.02
50652;BME280;66928;52.086;5.240;2023-05-08T11:38:37;101970.0;;;21.12;69.39
50652;BME280;66928;52.086;5.240;2023-05-08T11:42:58;101966.0;;;21.17;67.94
50652;BME280;66928;52.086;5.240;2023-05-08T11:44:35;101967.0;;;21.06;68.23
50652;BME280;66928;52.086;5.240;2023-05-08T11:46:13;101966.0;;;21.09;68.42
50652;BME280;66928;52.086;5.240;2023-05-08T11:49:35;101966.0;;;21.21;69.05
50652;BME280;66928;52.086;5.240;2023-05-08T11:51:12;101962.0;;;21.26;69.66
50652;BME280;66928;52.086;5.240;2023-05-08T11:52:50;101956.0;;;21.4;68.05
50652;BME280;66928;52.086;5.240;2023-05-08T11:56:06;101955.0;;;21.51;69.08
50652;BME280;66928;52.086;5.240;2023-05-08T11:57:41;101955.0;;;21.54;68.08
50652;BME280;66928;52.086;5.240;2023-05-08T11:59:18;101952.0;;;21.56;67.1
50652;BME280;66928;52.086;5.240;2023-05-08T12:00:55;101955.0;;;21.44;67.41
50652;BME280;66928;52.086;5.240;2023-05-08T12:04:11;101949.0;;;21.5;67.17
50652;BME280;66928;52.086;5.240;2023-05-08T12:05:49;101948.0;;;21.61;66.77
50652;BME280;66928;52.086;5.240;2023-05-08T12:07:26;101952.0;;;21.75;67.12
50652;BME280;66928;52.086;5.240;2023-05-08T12:10:48;101947.0;;;21.64;66.84
50652;BME280;66928;52.086;5.240;2023-05-08T12:12:34;101948.0;;;21.65;66.94
50652;BME280;66928;52.086;5.240;2023-05-08T12:14:12;101949.0;;;21.73;67.47
50652;BME280;66928;52.086;5.240;2023-05-08T12:15:53;101949.0;;;21.75;67.27
50652;BME280;66928;52.086;5.240;2023-05-08T12:17:31;101948.0;;;21.8;66.23
50652;BME280;66928;52.086;5.240;2023-05-08T12:20:50;101948.0;;;21.96;65.69
50652;BME280;66928;52.086;5.240;2023-05-08T12:22:27;101944.0;;;22.0;64.83
50652;BME280;66928;52.086;5.240;2023-05-08T12:24:05;101944.0;;;21.98;65.81
50652;BME280;66928;52.086;5.240;2023-05-08T12:27:18;101940.0;;;22.04;65.66
50652;BME280;66928;52.086;5.240;2023-05-08T12:28:55;101939.0;;;22.12;64.53
50652;BME280;66928;52.086;5.240;2023-05-08T12:30:32;101937.0;;;22.09;64.02
50652;BME280;66928;52.086;5.240;2023-05-08T12:32:07;101939.0;;;22.03;64.31
50652;BME280;66928;52.086;5.240;2023-05-08T12:35:20;101943.0;;;21.93;64.59
50652;BME280;66928;52.086;5.240;2023-05-08T12:37:04;101942.0;;;21.89;65.24
50652;BME280;66928;52.086;5.240;2023-05-08T12:38:40;101940.0;;;21.81;65.67
50652;BME280;66928;52.086;5.240;2023-05-08T12:42:03;101939.0;;;22.03;66.11
50652;BME280;66928;52.086;5.240;2023-05-08T12:43:39;101937.0;;;21.94;66.3
50652;BME280;66928;52.086;5.240;2023-05-08T12:45:16;101932.0;;;22.0;64.69
50652;BME280;66928;52.086;5.240;2023-05-08T12:46:55;101928.0;;;21.77;65.5
50652;BME280;66928;52.086;5.240;2023-05-08T12:50:09;101918.0;;;21.93;65.37
50652;BME280;66928;52.086;5.240;2023-05-08T12:51:45;101910.0;;;22.08;65.55
50652;BME280;66928;52.086;5.240;2023-05-08T12:53:21;101917.0;;;22.12;64.13
50652;BME280;66928;52.086;5.240;2023-05-08T12:56:34;101915.0;;;22.12;63.55
50652;BME280;66928;52.086;5.240;2023-05-08T12:58:11;101914.0;;;22.06;63.47
50652;BME280;66928;52.086;5.240;2023-05-08T12:59:48;101906.0;;;22.21;63.24
50652;BME280;66928;52.086;5.240;2023-05-08T13:01:24;101906.0;;;22.24;63.81
50652;BME280;66928;52.086;5.240;2023-05-08T13:04:36;101905.0;;;22.25;62.64
50652;BME280;66928;52.086;5.240;2023-05-08T13:06:20;101906.0;;;22.32;62.63
50652;BME280;66928;52.086;5.240;2023-05-08T13:07:59;101905.0;;;22.37;62.04
50652;BME280;66928;52.086;5.240;2023-05-08T13:11:12;101905.0;;;22.39;62.12
50652;BME280;66928;52.086;5.240;2023-05-08T13:12:47;101901.0;;;22.46;60.91
50652;BME280;66928;52.086;5.240;2023-05-08T13:14:23;101898.0;;;22.47;61.2
50652;BME280;66928;52.086;5.240;2023-05-08T13:17:39;101896.0;;;22.25;60.63
50652;BME280;66928;52.086;5.240;2023-05-08T13:19:15;101897.0;;;22.57;60.36
50652;BME280;66928;52.086;5.240;2023-05-08T13:20:51;101899.0;;;22.52;60.1
50652;BME280;66928;52.086;5.240;2023-05-08T13:22:28;101899.0;;;22.54;60.37
50652;BME280;66928;52.086;5.240;2023-05-08T13:25:41;101898.0;;;22.72;60.73
50652;BME280;66928;52.086;5.240;2023-05-08T13:27:17;101898.0;;;22.84;59.92
50652;BME280;66928;52.086;5.240;2023-05-08T13:28:53;101894.0;;;22.78;59.5
50652;BME280;66928;52.086;5.240;2023-05-08T13:32:06;101892.0;;;22.81;59.93
50652;BME280;66928;52.086;5.240;2023-05-08T13:33:42;101895.0;;;22.78;59.97
50652;BME280;66928;52.086;5.240;2023-05-08T13:35:19;101892.0;;;22.89;58.88
50652;BME280;66928;52.086;5.240;2023-05-08T13:38:32;101892.0;;;22.74;58.88
50652;BME280;66928;52.086;5.240;2023-05-08T13:40:10;101891.0;;;22.78;58.72
50652;BME280;66928;52.086;5.240;2023-05-08T13:41:47;101891.0;;;22.82;58.78
50652;BME280;66928;52.086;5.240;2023-05-08T13:43:23;101890.0;;;22.76;59.46
50652;BME280;66928;52.086;5.240;2023-05-08T13:46:35;101890.0;;;22.75;59.39
50652;BME280;66928;52.086;5.240;2023-05-08T13:48:11;101895.0;;;22.63;58.98
50652;BME280;66928;52.086;5.240;2023-05-08T13:49:48;101890.0;;;22.69;59.94
50652;BME280;66928;52.086;5.240;2023-05-08T13:53:00;101890.0;;;22.68;59.9
50652;BME280;66928;52.086;5.240;2023-05-08T13:54:36;101886.0;;;22.74;59.81
50652;BME280;66928;52.086;5.240;2023-05-08T13:56:12;101881.0;;;22.64;59.04
50652;BME280;66928;52.086;5.240;2023-05-08T13:59:26;101881.0;;;22.71;58.66
50652;BME280;66928;52.086;5.240;2023-05-08T14:01:01;101885.0;;;22.61;59.12
50652;BME280;66928;52.086;5.240;2023-05-08T14:02:38;101885.0;;;22.73;58.9
50652;BME280;66928;52.086;5.240;2023-05-08T14:04:14;101881.0;;;22.69;59.12
50652;BME280;66928;52.086;5.240;2023-05-08T14:07:27;101883.0;;;22.48;60.03
50652;BME280;66928;52.086;5.240;2023-05-08T14:09:03;101883.0;;;22.62;59.68
50652;BME280;66928;52.086;5.240;2023-05-08T14:10:39;101880.0;;;22.33;60.01
50652;BME280;66928;52.086;5.240;2023-05-08T14:13:51;101881.0;;;22.46;60.63
50652;BME280;66928;52.086;5.240;2023-05-08T14:15:28;101878.0;;;22.55;60.0
50652;BME280;66928;52.086;5.240;2023-05-08T14:17:04;101880.0;;;22.27;60.16
50652;BME280;66928;52.086;5.240;2023-05-08T14:20:18;101880.0;;;22.42;60.36
50652;BME280;66928;52.086;5.240;2023-05-08T14:21:54;101874.0;;;22.38;60.05
50652;BME280;66928;52.086;5.240;2023-05-08T14:23:30;101875.0;;;22.4;60.45
50652;BME280;66928;52.086;5.240;2023-05-08T14:25:07;101876.0;;;22.53;60.28
50652;BME280;66928;52.086;5.240;2023-05-08T14:28:20;101876.0;;;22.54;60.46
50652;BME280;66928;52.086;5.240;2023-05-08T14:29:56;101869.0;;;22.65;59.82
50652;BME280;66928;52.086;5.240;2023-05-08T14:31:32;101868.0;;;22.55;60.05
50652;BME280;66928;52.086;5.240;2023-05-08T14:34:45;101869.0;;;22.49;60.17
50652;BME280;66928;52.086;5.240;2023-05-08T14:36:21;101869.0;;;22.46;60.49
50652;BME280;66928;52.086;5.240;2023-05-08T14:37:57;101871.0;;;22.25;61.44
50652;BME280;66928;52.086;5.240;2023-05-08T14:41:10;101869.0;;;22.56;60.47
50652;BME280;66928;52.086;5.240;2023-05-08T14:42:46;101866.0;;;22.63;60.17
50652;BME280;66928;52.086;5.240;2023-05-08T14:44:22;101860.0;;;22.74;60.12
50652;BME280;66928;52.086;5.240;2023-05-08T14:47:35;101858.0;;;22.76;60.04
50652;BME280;66928;52.086;5.240;2023-05-08T14:49:12;101855.0;;;22.78;60.08
50652;BME280;66928;52.086;5.240;2023-05-08T14:50:48;101856.0;;;22.86;60.22
50652;BME280;66928;52.086;5.240;2023-05-08T14:52:25;101853.0;;;22.66;60.37
50652;BME280;66928;52.086;5.240;2023-05-08T14:55:37;101853.0;;;22.7;60.27
50652;BME280;66928;52.086;5.240;2023-05-08T14:57:13;101850.0;;;22.8;59.23
50652;BME280;66928;52.086;5.240;2023-05-08T14:58:49;101850.0;;;22.83;59.6
50652;BME280;66928;52.086;5.240;2023-05-08T15:02:01;101855.0;;;22.75;59.79
50652;BME280;66928;52.086;5.240;2023-05-08T15:03:39;101853.0;;;22.84;59.12
50652;BME280;66928;52.086;5.240;2023-05-08T15:05:15;101855.0;;;22.75;58.99
50652;BME280;66928;52.086;5.240;2023-05-08T15:08:27;101855.0;;;22.61;58.97
50652;BME280;66928;52.086;5.240;2023-05-08T15:10:04;101858.0;;;22.7;59.54
50652;BME280;66928;52.086;5.240;2023-05-08T15:11:40;101855.0;;;22.74;59.39
50652;BME280;66928;52.086;5.240;2023-05-08T15:13:15;101850.0;;;22.79;59.63
50652;BME280;66928;52.086;5.240;2023-05-08T15:16:28;101848.0;;;22.82;59.01
50652;BME280;66928;52.086;5.240;2023-05-08T15:18:04;101851.0;;;22.74;59.58
50652;BME280;66928;52.086;5.240;2023-05-08T15:19:40;101856.0;;;22.65;59.61
50652;BME280;66928;52.086;5.240;2023-05-08T15:22:52;101851.0;;;22.42;60.36
50652;BME280;66928;52.086;5.240;2023-05-08T15:24:28;101855.0;;;22.63;59.82
50652;BME280;66928;52.086;5.240;2023-05-08T15:26:05;101856.0;;;22.63;59.68
50652;BME280;66928;52.086;5.240;2023-05-08T15:29:17;101857.0;;;22.31;60.3
50652;BME280;66928;52.086;5.240;2023-05-08T15:30:53;101856.0;;;22.61;59.98
50652;BME280;66928;52.086;5.240;2023-05-08T15:32:29;101853.0;;;22.66;59.51
50652;BME280;66928;52.086;5.240;2023-05-08T15:35:41;101851.0;;;22.69;60.39
50652;BME280;66928;52.086;5.240;2023-05-08T15:37:17;101852.0;;;22.66;59.52
50652;BME280;66928;52.086;5.240;2023-05-08T15:38:53;101842.0;;;22.56;59.93
50652;BME280;66928;52.086;5.240;2023-05-08T15:40:30;101845.0;;;22.63;60.11
50652;BME280;66928;52.086;5.240;2023-05-08T15:43:42;101842.0;;;22.63;60.29
50652;BME280;66928;52.086;5.240;2023-05-08T15:45:18;101843.0;;;22.66;60.33
50652;BME280;66928;52.086;5.240;2023-05-08T15:46:54;101843.0;;;22.34;61.7
50652;BME280;66928;52.086;5.240;2023-05-08T15:50:07;101851.0;;;22.39;62.28
50652;BME280;66928;52.086;5.240;2023-05-08T15:51:42;101845.0;;;22.13;63.46
50652;BME280;66928;52.086;5.240;2023-05-08T15:53:19;101852.0;;;22.15;63.87
50652;BME280;66928;52.086;5.240;2023-05-08T15:56:31;101849.0;;;22.07;63.77
50652;BME280;66928;52.086;5.240;2023-05-08T15:58:09;101848.0;;;21.92;64.25
50652;BME280;66928;52.086;5.240;2023-05-08T15:59:45;101850.0;;;21.87;64.45
50652;BME280;66928;52.086;5.240;2023-05-08T16:01:21;101855.0;;;21.64;65.08
50652;BME280;66928;52.086;5.240;2023-05-08T16:04:34;101857.0;;;21.39;65.94
50652;BME280;66928;52.086;5.240;2023-05-08T16:06:10;101861.0;;;21.2;66.66
50652;BME280;66928;52.086;5.240;2023-05-08T16:07:46;101861.0;;;21.34;66.52
50652;BME280;66928;52.086;5.240;2023-05-08T16:10:57;101865.0;;;21.13;67.33
50652;BME280;66928;52.086;5.240;2023-05-08T16:12:34;101864.0;;;21.46;66.77
50652;BME280;66928;52.086;5.240;2023-05-08T16:14:10;101863.0;;;21.53;66.06
50652;BME280;66928;52.086;5.240;2023-05-08T16:17:23;101864.0;;;21.41;66.59
50652;BME280;66928;52.086;5.240;2023-05-08T16:18:59;101860.0;;;21.1;67.66
50652;BME280;66928;52.086;5.240;2023-05-08T16:20:35;101860.0;;;21.08;67.89
50652;BME280;66928;52.086;5.240;2023-05-08T16:23:48;101856.0;;;21.08;67.84
50652;BME280;66928;52.086;5.240;2023-05-08T16:25:24;101853.0;;;21.07;67.48
50652;BME280;66928;52.086;5.240;2023-05-08T16:27:01;101857.0;;;21.08;67.47
50652;BME280;66928;52.086;5.240;2023-05-08T16:28:37;101863.0;;;21.14;67.02
50652;BME280;66928;52.086;5.240;2023-05-08T16:31:49;101860.0;;;21.18;66.97
50652;BME280;66928;52.086;5.240;2023-05-08T16:33:25;101861.0;;;21.03;67.52
50652;BME280;66928;52.086;5.240;2023-05-08T16:35:01;101859.0;;;21.07;67.66
50652;BME280;66928;52.086;5.240;2023-05-08T16:38:13;101864.0;;;20.91;67.37
50652;BME280;66928;52.086;5.240;2023-05-08T16:39:50;101861.0;;;21.03;66.8
50652;BME280;66928;52.086;5.240;2023-05-08T16:41:26;101856.0;;;20.93;66.86
50652;BME280;66928;52.086;5.240;2023-05-08T16:44:38;101851.0;;;20.94;66.99
50652;BME280;66928;52.086;5.240;2023-05-08T16:46:14;101847.0;;;21.06;66.52
50652;BME280;66928;52.086;5.240;2023-05-08T16:47:50;101841.0;;;21.3;65.72
50652;BME280;66928;52.086;5.240;2023-05-08T16:49:27;101837.0;;;21.46;65.48
50652;BME280;66928;52.086;5.240;2023-05-08T16:52:39;101835.0;;;21.56;65.08
50652;BME280;66928;52.086;5.240;2023-05-08T16:54:15;101831.0;;;21.69;64.55
50652;BME280;66928;52.086;5.240;2023-05-08T16:55:52;101833.0;;;21.4;64.95
50652;BME280;66928;52.086;5.240;2023-05-08T16:59:04;101833.0;;;21.4;65.06